Time;durP1;ratioP1;P1;durP2;ratioP2;P2;SDS_P1;SDS_P2;PMS_P1;PMS_P2;Temp;Humidity;BMP_temperature;BMP_pressure;BME280_temperature;BME280_humidity;BME280_pressure;Samples;Min_cycle;Max_cycle;Signal;HPM_P1;HPM_P2
2023/12/27 00:00:29;;;;;;;12.30;5.43;;;3.40;99.90;;;;;;5052333;28;20116;-75
2023/12/27 00:02:55;;;;;;;19.33;7.22;;;3.50;99.90;;;;;;5049433;28;20392;-76
2023/12/27 00:05:21;;;;;;;32.47;7.68;;;3.50;99.90;;;;;;5053896;28;20078;-75
2023/12/27 00:07:47;;;;;;;17.08;7.43;;;3.50;99.90;;;;;;5049626;28;20499;-75
2023/12/27 00:10:12;;;;;;;13.38;6.03;;;3.50;99.90;;;;;;5052770;28;20481;-75
2023/12/27 00:12:38;;;;;;;18.23;6.85;;;3.50;99.90;;;;;;5051754;28;20143;-75
2023/12/27 00:15:04;;;;;;;15.23;6.22;;;3.50;99.90;;;;;;5051786;28;20045;-75
2023/12/27 00:17:30;;;;;;;17.98;6.90;;;3.40;99.90;;;;;;5052161;28;20025;-75
2023/12/27 00:19:55;;;;;;;20.58;7.80;;;3.40;99.90;;;;;;5051430;28;20060;-75
2023/12/27 00:22:21;;;;;;;12.77;6.10;;;3.30;99.90;;;;;;5050911;28;20387;-75
2023/12/27 00:24:46;;;;;;;14.95;5.65;;;3.30;99.90;;;;;;5052112;28;20039;-75
2023/12/27 00:27:12;;;;;;;14.05;6.35;;;3.20;99.90;;;;;;5052179;28;20037;-76
2023/12/27 00:29:37;;;;;;;13.40;5.80;;;3.20;99.90;;;;;;5052323;28;20029;-76
2023/12/27 00:32:08;;;;;;;21.88;6.72;;;3.20;99.90;;;;;;5049991;28;20028;-75
2023/12/27 00:34:34;;;;;;;19.88;7.60;;;3.10;99.90;;;;;;5049975;28;20037;-75
2023/12/27 00:37:00;;;;;;;18.42;6.50;;;3.20;99.90;;;;;;5044959;28;20017;-75
2023/12/27 00:39:26;;;;;;;19.70;7.38;;;3.20;99.90;;;;;;5044814;28;20055;-75
2023/12/27 00:41:52;;;;;;;21.80;7.82;;;3.20;99.90;;;;;;5051783;28;20469;-75
2023/12/27 00:44:18;;;;;;;19.67;7.63;;;3.30;99.90;;;;;;5045276;28;20032;-75
2023/12/27 00:46:44;;;;;;;16.50;7.55;;;3.30;99.90;;;;;;5049864;28;20017;-75
2023/12/27 00:49:10;;;;;;;16.08;6.22;;;3.20;99.90;;;;;;5051131;28;20040;-77
2023/12/27 00:51:35;;;;;;;18.15;6.97;;;3.20;99.90;;;;;;5048780;28;20096;-76
2023/12/27 00:54:01;;;;;;;14.52;5.57;;;3.10;99.90;;;;;;5051674;28;20427;-76
2023/12/27 00:56:27;;;;;;;16.83;6.32;;;3.00;99.90;;;;;;5050324;28;20476;-76
2023/12/27 00:58:52;;;;;;;16.27;6.65;;;3.00;99.90;;;;;;5045402;28;20495;-76
2023/12/27 01:01:18;;;;;;;18.20;8.07;;;2.90;99.90;;;;;;5051438;28;20119;-76
2023/12/27 01:03:43;;;;;;;17.60;7.10;;;3.00;99.90;;;;;;5042195;28;20029;-75
2023/12/27 01:06:10;;;;;;;19.90;7.40;;;2.90;99.90;;;;;;5047664;28;20171;-76
2023/12/27 01:08:36;;;;;;;21.50;7.25;;;2.90;99.90;;;;;;5044324;28;20472;-76
2023/12/27 01:11:02;;;;;;;17.65;6.10;;;2.90;99.90;;;;;;5052150;28;20104;-74
2023/12/27 01:13:28;;;;;;;17.70;7.00;;;2.90;99.90;;;;;;5040336;28;20102;-74
2023/12/27 01:15:54;;;;;;;17.83;7.00;;;2.80;99.90;;;;;;5052026;28;20435;-75
2023/12/27 01:18:20;;;;;;;20.65;7.57;;;2.90;99.90;;;;;;5048036;28;20009;-74
2023/12/27 01:20:46;;;;;;;23.65;7.80;;;2.90;99.90;;;;;;5044739;28;20121;-75
2023/12/27 01:23:12;;;;;;;22.15;7.22;;;2.80;99.90;;;;;;5052027;28;20021;-74
2023/12/27 01:25:38;;;;;;;17.75;8.43;;;2.90;99.90;;;;;;5051546;28;20044;-75
2023/12/27 01:28:03;;;;;;;15.52;8.00;;;2.90;99.90;;;;;;5035009;28;20027;-74
2023/12/27 01:30:30;;;;;;;17.05;7.57;;;2.90;99.90;;;;;;5051870;28;20075;-75
2023/12/27 01:32:56;;;;;;;25.45;8.15;;;2.90;99.90;;;;;;5047894;28;20029;-75
2023/12/27 01:35:21;;;;;;;21.33;7.85;;;2.90;99.90;;;;;;5047179;28;20037;-75
2023/12/27 01:37:47;;;;;;;16.52;7.95;;;3.00;99.90;;;;;;5048347;28;20543;-75
2023/12/27 01:40:12;;;;;;;17.52;7.85;;;3.00;99.90;;;;;;5047728;28;20059;-75
2023/12/27 01:42:39;;;;;;;24.52;7.68;;;3.10;99.90;;;;;;5044588;28;20378;-74
2023/12/27 01:45:05;;;;;;;17.30;7.28;;;3.10;99.90;;;;;;5051148;28;20480;-74
2023/12/27 01:47:33;;;;;;;19.55;8.15;;;3.10;99.90;;;;;;5051409;28;20025;-75
2023/12/27 01:49:59;;;;;;;23.40;7.13;;;3.10;99.90;;;;;;5042296;28;20029;-75
2023/12/27 01:52:26;;;;;;;27.08;7.75;;;3.10;99.90;;;;;;5050720;28;20036;-75
2023/12/27 01:54:52;;;;;;;21.98;8.60;;;3.10;99.90;;;;;;5036068;28;20040;-75
2023/12/27 01:57:18;;;;;;;21.38;8.38;;;3.10;99.90;;;;;;5043559;28;20362;-75
2023/12/27 01:59:45;;;;;;;33.35;10.65;;;3.20;99.90;;;;;;5050402;28;20100;-75
2023/12/27 02:02:12;;;;;;;29.40;9.27;;;3.20;99.90;;;;;;5048319;28;20094;-75
2023/12/27 02:04:38;;;;;;;35.08;8.30;;;3.20;99.90;;;;;;5047405;28;20447;-75
2023/12/27 02:07:04;;;;;;;18.75;7.70;;;3.20;99.90;;;;;;5050399;28;20021;-75
2023/12/27 02:09:30;;;;;;;21.70;8.10;;;3.20;99.90;;;;;;5051106;28;20124;-75
2023/12/27 02:11:55;;;;;;;22.40;9.80;;;3.20;99.90;;;;;;5047106;28;20536;-75
2023/12/27 02:14:21;;;;;;;18.55;7.90;;;3.10;99.90;;;;;;5053457;28;20112;-75
2023/12/27 02:16:47;;;;;;;16.20;7.93;;;3.10;99.90;;;;;;5035805;28;20476;-75
2023/12/27 02:19:25;;;;;;;21.10;8.32;;;3.10;99.90;;;;;;5055812;28;20048;-75
2023/12/27 02:21:52;;;;;;;21.90;8.15;;;3.10;99.90;;;;;;5039486;28;20028;-74
2023/12/27 02:24:19;;;;;;;24.10;8.85;;;3.10;99.90;;;;;;5054396;28;20031;-74
2023/12/27 02:26:45;;;;;;;23.15;8.43;;;3.20;99.90;;;;;;5042203;28;20423;-74
2023/12/27 02:29:11;;;;;;;26.02;9.77;;;3.20;99.90;;;;;;5051772;28;20477;-75
2023/12/27 02:31:36;;;;;;;26.08;8.63;;;3.20;99.90;;;;;;5052603;28;20052;-74
2023/12/27 02:34:02;;;;;;;22.92;9.40;;;3.20;99.90;;;;;;5053479;28;20078;-75
2023/12/27 02:36:27;;;;;;;19.60;7.88;;;3.20;99.90;;;;;;5055149;28;20044;-75
2023/12/27 02:38:53;;;;;;;20.20;7.93;;;3.10;99.90;;;;;;5050873;28;20045;-75
2023/12/27 02:41:18;;;;;;;19.83;8.88;;;3.10;99.90;;;;;;5036438;28;20034;-74
2023/12/27 02:43:44;;;;;;;25.27;8.93;;;3.10;99.90;;;;;;5053713;28;20150;-74
2023/12/27 02:46:09;;;;;;;24.13;8.80;;;3.10;99.90;;;;;;5035629;28;20025;-75
2023/12/27 02:48:35;;;;;;;22.83;9.18;;;3.10;99.90;;;;;;5053640;28;20033;-74
2023/12/27 02:51:01;;;;;;;25.42;9.55;;;3.10;99.90;;;;;;5055331;28;20112;-74
2023/12/27 02:53:26;;;;;;;23.58;9.38;;;3.20;99.90;;;;;;5053750;28;20017;-75
2023/12/27 02:55:52;;;;;;;23.38;10.00;;;3.20;99.90;;;;;;5055767;28;20037;-74
2023/12/27 02:58:17;;;;;;;23.20;9.32;;;3.20;99.90;;;;;;5057543;28;20455;-74
2023/12/27 03:00:46;;;;;;;27.58;11.43;;;3.20;99.90;;;;;;5067067;28;20045;-75
2023/12/27 03:03:12;;;;;;;27.38;10.77;;;3.20;99.90;;;;;;5060804;28;20385;-75
2023/12/27 03:05:38;;;;;;;20.00;9.13;;;3.20;99.90;;;;;;5045530;28;20033;-74
2023/12/27 03:08:04;;;;;;;24.73;9.27;;;3.30;99.90;;;;;;5053233;28;20033;-74
2023/12/27 03:10:29;;;;;;;24.67;10.57;;;3.30;99.90;;;;;;5059548;28;20029;-74
2023/12/27 03:12:55;;;;;;;25.65;11.18;;;3.40;99.90;;;;;;5064746;28;20017;-75
2023/12/27 03:15:21;;;;;;;29.08;9.52;;;3.40;99.90;;;;;;5060337;28;20045;-76
2023/12/27 03:17:46;;;;;;;29.27;10.50;;;3.40;99.90;;;;;;5067670;28;20063;-75
2023/12/27 03:20:12;;;;;;;27.60;9.75;;;3.50;99.90;;;;;;5063106;28;20036;-75
2023/12/27 03:22:37;;;;;;;26.17;10.55;;;3.60;99.90;;;;;;5059197;28;20505;-75
2023/12/27 03:25:04;;;;;;;22.80;9.52;;;3.60;99.90;;;;;;5054418;28;20428;-75
2023/12/27 03:27:29;;;;;;;34.65;10.23;;;3.60;99.90;;;;;;5053046;28;20035;-75
2023/12/27 03:29:55;;;;;;;38.40;10.88;;;3.70;99.90;;;;;;5056107;28;20464;-75
2023/12/27 03:32:23;;;;;;;25.77;10.40;;;3.80;99.90;;;;;;5057124;28;20027;-75
2023/12/27 03:34:49;;;;;;;29.52;11.23;;;3.70;99.90;;;;;;5054767;28;20029;-75
2023/12/27 03:37:15;;;;;;;42.88;13.35;;;3.80;99.90;;;;;;5052031;28;20130;-75
2023/12/27 03:39:44;;;;;;;31.98;12.30;;;3.80;99.90;;;;;;5055660;28;20052;-75
2023/12/27 03:42:10;;;;;;;30.48;11.40;;;3.80;99.90;;;;;;5053208;28;20020;-75
2023/12/27 03:44:35;;;;;;;28.30;11.77;;;3.90;99.90;;;;;;5051940;28;20087;-75
2023/12/27 03:47:01;;;;;;;32.22;11.30;;;3.90;99.90;;;;;;5054312;28;20107;-75
2023/12/27 03:49:27;;;;;;;29.77;10.35;;;3.90;99.90;;;;;;5053727;28;20040;-75
2023/12/27 03:51:52;;;;;;;30.13;10.27;;;3.90;99.90;;;;;;5052741;28;20479;-75
2023/12/27 03:54:21;;;;;;;25.90;10.48;;;3.90;99.90;;;;;;5047930;28;20080;-75
2023/12/27 03:56:46;;;;;;;25.33;11.25;;;4.00;99.90;;;;;;5048234;28;20025;-75
2023/12/27 03:59:12;;;;;;;35.97;12.00;;;4.00;99.90;;;;;;5050782;28;20111;-75
2023/12/27 04:01:38;;;;;;;26.77;10.95;;;4.00;99.90;;;;;;5051390;28;20024;-75
2023/12/27 04:04:03;;;;;;;32.13;12.70;;;4.10;99.90;;;;;;5051254;28;20416;-75
2023/12/27 04:06:29;;;;;;;33.80;12.45;;;4.10;99.90;;;;;;5048658;28;20032;-75
2023/12/27 04:08:55;;;;;;;29.60;10.82;;;4.20;99.90;;;;;;5049428;28;20037;-75
2023/12/27 04:11:20;;;;;;;24.70;11.02;;;4.20;99.90;;;;;;5051566;28;20029;-75
2023/12/27 04:13:46;;;;;;;24.88;10.73;;;4.20;99.90;;;;;;5050763;28;20032;-75
2023/12/27 04:16:12;;;;;;;36.22;13.35;;;4.30;99.90;;;;;;5030277;28;20029;-75
2023/12/27 04:18:38;;;;;;;38.05;13.35;;;4.30;99.90;;;;;;5051278;28;20029;-75
2023/12/27 04:21:03;;;;;;;33.35;12.52;;;4.30;99.90;;;;;;5051098;28;20055;-76
2023/12/27 04:23:29;;;;;;;25.55;13.07;;;4.40;99.90;;;;;;5032677;28;20029;-75
2023/12/27 04:25:55;;;;;;;30.73;13.27;;;4.40;99.90;;;;;;5047301;28;20133;-75
2023/12/27 04:28:21;;;;;;;33.03;13.38;;;4.40;99.90;;;;;;5051088;28;20033;-75
2023/12/27 04:30:47;;;;;;;29.00;13.18;;;4.40;99.90;;;;;;5050083;28;20396;-75
2023/12/27 04:33:13;;;;;;;33.25;13.20;;;4.40;99.90;;;;;;5050899;28;20032;-76
2023/12/27 04:35:38;;;;;;;28.92;13.02;;;4.50;99.90;;;;;;5048959;28;20191;-74
2023/12/27 04:38:04;;;;;;;35.25;12.70;;;4.50;99.90;;;;;;5052790;28;20104;-75
2023/12/27 04:40:30;;;;;;;31.35;11.48;;;4.50;99.90;;;;;;5052100;28;20092;-75
2023/12/27 04:42:55;;;;;;;28.80;12.75;;;4.50;99.90;;;;;;5048631;28;20071;-75
2023/12/27 04:45:21;;;;;;;29.38;11.57;;;4.60;99.90;;;;;;5046286;28;20512;-76
2023/12/27 04:47:47;;;;;;;33.88;12.45;;;4.60;99.90;;;;;;5053297;28;20056;-75
2023/12/27 04:50:12;;;;;;;29.38;13.05;;;4.60;99.90;;;;;;5049884;28;20127;-75
2023/12/27 04:52:38;;;;;;;34.28;12.32;;;4.60;99.90;;;;;;5050421;28;20108;-75
2023/12/27 04:55:04;;;;;;;42.22;12.80;;;4.60;99.90;;;;;;5042282;28;20033;-74
2023/12/27 04:57:30;;;;;;;27.55;12.00;;;4.60;99.90;;;;;;5048029;28;20444;-74
2023/12/27 04:59:56;;;;;;;35.58;11.82;;;4.60;99.90;;;;;;5033092;28;20052;-74
2023/12/27 05:02:21;;;;;;;28.60;11.68;;;4.60;99.90;;;;;;5049872;28;20028;-74
2023/12/27 05:04:47;;;;;;;28.90;11.27;;;4.60;99.90;;;;;;5041887;28;20112;-74
2023/12/27 05:07:14;;;;;;;25.83;10.90;;;4.70;99.90;;;;;;5047767;28;20025;-74
2023/12/27 05:09:39;;;;;;;30.48;12.00;;;4.70;99.90;;;;;;5047157;28;20506;-74
2023/12/27 05:12:05;;;;;;;30.98;10.15;;;4.70;99.90;;;;;;5045931;28;20017;-74
2023/12/27 05:14:31;;;;;;;29.48;12.45;;;4.70;99.90;;;;;;5045977;28;20648;-74
2023/12/27 05:16:57;;;;;;;29.83;9.63;;;4.80;99.90;;;;;;5047873;28;20047;-74
2023/12/27 05:19:22;;;;;;;30.63;11.40;;;4.80;99.90;;;;;;5048947;28;20025;-74
2023/12/27 05:21:48;;;;;;;29.75;10.48;;;4.90;99.90;;;;;;5048908;28;20021;-74
2023/12/27 05:24:13;;;;;;;21.95;9.73;;;4.90;99.90;;;;;;5047018;28;20522;-74
2023/12/27 05:26:39;;;;;;;34.90;9.40;;;5.00;99.90;;;;;;5049117;28;20021;-74
2023/12/27 05:29:04;;;;;;;27.77;9.73;;;5.00;99.90;;;;;;5049278;28;20024;-74
2023/12/27 05:31:30;;;;;;;23.73;9.80;;;5.00;99.90;;;;;;5048036;28;20017;-74
2023/12/27 05:33:56;;;;;;;30.33;9.88;;;5.10;99.90;;;;;;5046968;28;20025;-74
2023/12/27 05:36:21;;;;;;;39.30;10.43;;;5.10;99.90;;;;;;5046505;28;20048;-74
2023/12/27 05:38:47;;;;;;;27.65;9.65;;;5.10;99.90;;;;;;5042621;28;20539;-74
2023/12/27 05:41:13;;;;;;;24.48;8.48;;;5.10;99.90;;;;;;5050345;28;20064;-76
2023/12/27 05:43:38;;;;;;;30.83;9.20;;;5.10;99.90;;;;;;5047269;28;20504;-74
2023/12/27 05:46:04;;;;;;;28.02;8.90;;;5.10;99.90;;;;;;5039761;28;20108;-75
2023/12/27 05:48:30;;;;;;;32.20;8.98;;;5.20;99.90;;;;;;5053617;28;20075;-74
2023/12/27 05:50:56;;;;;;;26.52;8.73;;;5.20;99.90;;;;;;5054710;28;20033;-74
2023/12/27 05:53:22;;;;;;;21.75;7.78;;;5.20;99.90;;;;;;5052047;28;20036;-74
2023/12/27 05:55:47;;;;;;;26.27;8.55;;;5.30;99.90;;;;;;5051704;28;20067;-74
2023/12/27 05:58:13;;;;;;;23.52;7.68;;;5.20;99.90;;;;;;5052569;28;20032;-74
2023/12/27 06:00:38;;;;;;;28.40;7.13;;;5.30;99.90;;;;;;5054293;28;20548;-74
2023/12/27 06:03:04;;;;;;;24.70;8.05;;;5.30;99.90;;;;;;5050850;28;20346;-74
2023/12/27 06:05:30;;;;;;;26.08;7.72;;;5.30;99.90;;;;;;5052654;28;20032;-74
2023/12/27 06:07:55;;;;;;;24.10;7.20;;;5.40;99.90;;;;;;5047126;28;20033;-74
2023/12/27 06:10:21;;;;;;;21.13;7.28;;;5.40;99.90;;;;;;5054401;28;20035;-76
2023/12/27 06:12:47;;;;;;;23.17;6.90;;;5.40;99.90;;;;;;5049497;28;20583;-75
2023/12/27 06:15:13;;;;;;;21.85;7.47;;;5.50;99.90;;;;;;5044559;28;20040;-74
2023/12/27 06:17:39;;;;;;;23.05;8.63;;;5.50;99.90;;;;;;5052660;28;20047;-76
2023/12/27 06:20:06;;;;;;;24.90;7.53;;;5.50;99.90;;;;;;5053927;28;20025;-75
2023/12/27 06:22:32;;;;;;;27.55;7.57;;;5.50;99.90;;;;;;5052159;28;20489;-75
2023/12/27 06:24:58;;;;;;;25.08;8.50;;;5.60;99.90;;;;;;5051113;28;20036;-75
2023/12/27 06:27:23;;;;;;;21.55;7.18;;;5.60;99.90;;;;;;5041427;28;20030;-75
2023/12/27 06:29:49;;;;;;;24.52;7.60;;;5.60;99.90;;;;;;5051203;28;20025;-75
2023/12/27 06:32:15;;;;;;;28.13;8.35;;;5.60;99.90;;;;;;5045463;28;20416;-75
2023/12/27 06:34:40;;;;;;;22.67;8.20;;;5.50;99.90;;;;;;5031876;28;20037;-76
2023/12/27 06:37:06;;;;;;;26.08;8.30;;;5.60;99.90;;;;;;5049011;28;20075;-75
2023/12/27 06:39:32;;;;;;;19.65;7.88;;;5.60;99.90;;;;;;5049593;28;20496;-75
2023/12/27 06:41:57;;;;;;;22.05;7.53;;;5.50;99.90;;;;;;5047425;28;20021;-75
2023/12/27 06:44:23;;;;;;;22.00;6.70;;;5.50;99.90;;;;;;5049257;28;20104;-75
2023/12/27 06:46:49;;;;;;;31.52;8.05;;;5.50;99.90;;;;;;5051907;28;20021;-75
2023/12/27 06:49:14;;;;;;;31.10;7.80;;;5.50;99.90;;;;;;5049554;28;20029;-75
2023/12/27 06:51:40;;;;;;;28.23;8.15;;;5.50;99.90;;;;;;5035523;28;20393;-75
2023/12/27 06:54:06;;;;;;;19.92;7.80;;;5.50;99.90;;;;;;5051329;28;20507;-75
2023/12/27 06:56:31;;;;;;;23.10;7.47;;;5.60;99.90;;;;;;5049766;28;20022;-75
2023/12/27 06:58:57;;;;;;;23.27;7.65;;;5.50;99.90;;;;;;5052241;28;20112;-75
2023/12/27 07:01:24;;;;;;;21.40;7.95;;;5.60;99.90;;;;;;5044699;28;20029;-75
2023/12/27 07:03:50;;;;;;;27.42;8.57;;;5.60;99.90;;;;;;5032135;28;20029;-75
2023/12/27 07:06:17;;;;;;;29.50;9.55;;;5.60;99.90;;;;;;5047838;28;20021;-75
2023/12/27 07:08:43;;;;;;;31.05;8.90;;;5.60;99.90;;;;;;5050691;28;20025;-75
2023/12/27 07:11:15;;;;;;;23.98;9.13;;;5.60;99.90;;;;;;5043299;28;20029;-75
2023/12/27 07:13:42;;;;;;;32.70;9.45;;;5.60;99.90;;;;;;5053530;28;20104;-74
2023/12/27 07:16:07;;;;;;;26.67;10.30;;;5.60;99.90;;;;;;5055033;28;20040;-75
2023/12/27 07:18:33;;;;;;;23.17;9.13;;;5.60;99.90;;;;;;5053315;28;20038;-75
2023/12/27 07:20:58;;;;;;;23.73;9.10;;;5.60;99.90;;;;;;5048636;28;20108;-75
2023/12/27 07:23:24;;;;;;;27.73;9.52;;;5.60;99.90;;;;;;5053094;28;20495;-75
2023/12/27 07:25:50;;;;;;;25.95;8.85;;;5.60;99.90;;;;;;5049782;28;20040;-75
2023/12/27 07:28:16;;;;;;;27.88;8.93;;;5.60;99.90;;;;;;5052622;28;20100;-75
2023/12/27 07:30:42;;;;;;;27.95;10.35;;;5.60;99.90;;;;;;5050824;28;20021;-76
2023/12/27 07:33:07;;;;;;;32.45;9.73;;;5.60;99.90;;;;;;5035018;28;20065;-76
2023/12/27 07:35:33;;;;;;;27.58;9.65;;;5.60;99.90;;;;;;5051307;28;20047;-75
2023/12/27 07:38:00;;;;;;;30.77;9.15;;;5.60;99.90;;;;;;5049821;28;20071;-76
2023/12/27 07:40:27;;;;;;;30.58;9.38;;;5.60;99.90;;;;;;5048824;28;20370;-78
2023/12/27 07:42:53;;;;;;;27.58;8.95;;;5.60;99.90;;;;;;5050150;28;20376;-78
2023/12/27 07:45:21;;;;;;;26.20;9.32;;;5.60;99.90;;;;;;5051763;28;20028;-76
2023/12/27 07:47:47;;;;;;;23.83;9.48;;;5.60;99.90;;;;;;5042537;28;20028;-76
2023/12/27 07:50:12;;;;;;;34.83;11.20;;;5.70;99.90;;;;;;5050284;28;20039;-77
2023/12/27 07:52:38;;;;;;;29.67;10.85;;;5.60;99.90;;;;;;5046532;28;20021;-77
2023/12/27 07:55:04;;;;;;;27.17;10.10;;;5.70;99.90;;;;;;5048952;28;20473;-77
2023/12/27 07:57:30;;;;;;;28.50;10.82;;;5.60;99.90;;;;;;5042651;28;20021;-77
2023/12/27 07:59:57;;;;;;;28.90;10.07;;;5.70;99.90;;;;;;5048859;28;20025;-76
2023/12/27 08:02:23;;;;;;;27.02;10.30;;;5.70;99.90;;;;;;5052329;28;20306;-76
2023/12/27 08:04:49;;;;;;;25.20;10.10;;;5.70;99.90;;;;;;5047886;28;20036;-77
2023/12/27 08:07:15;;;;;;;26.67;11.18;;;5.70;99.90;;;;;;5052682;28;20021;-77
2023/12/27 08:09:41;;;;;;;28.27;11.27;;;5.70;99.90;;;;;;5049636;28;20044;-81
2023/12/27 08:12:07;;;;;;;28.83;11.43;;;5.70;99.90;;;;;;5048011;28;20524;-81
2023/12/27 08:14:36;;;;;;;24.73;10.95;;;5.70;99.90;;;;;;5054659;28;20055;-76
2023/12/27 08:17:02;;;;;;;30.42;12.05;;;5.80;99.90;;;;;;5051031;28;20025;-75
2023/12/27 08:19:28;;;;;;;27.10;11.30;;;5.80;99.90;;;;;;5031104;28;20032;-74
2023/12/27 08:21:55;;;;;;;28.05;12.65;;;5.80;99.90;;;;;;5049044;28;20017;-74
2023/12/27 08:24:20;;;;;;;26.50;11.95;;;5.80;99.90;;;;;;5053211;28;20017;-74
2023/12/27 08:26:46;;;;;;;26.17;11.45;;;5.80;99.90;;;;;;5053746;28;20055;-74
2023/12/27 08:29:12;;;;;;;24.38;12.10;;;5.90;99.90;;;;;;5051595;28;20079;-74
2023/12/27 08:31:38;;;;;;;25.70;13.38;;;5.90;99.90;;;;;;5054268;28;20033;-75
2023/12/27 08:34:04;;;;;;;25.00;12.38;;;5.90;99.90;;;;;;5051672;28;20069;-73
2023/12/27 08:36:29;;;;;;;25.05;11.90;;;6.00;99.90;;;;;;5048459;28;20029;-73
2023/12/27 08:38:55;;;;;;;23.45;12.00;;;6.00;99.90;;;;;;5050272;28;20060;-74
2023/12/27 08:41:24;;;;;;;20.63;12.98;;;6.00;99.90;;;;;;5039514;28;20083;-75
2023/12/27 08:43:53;;;;;;;23.17;12.75;;;6.10;99.90;;;;;;5034594;28;20394;-75
2023/12/27 08:46:22;;;;;;;26.27;12.48;;;6.10;99.90;;;;;;5049893;28;20048;-75
2023/12/27 08:48:48;;;;;;;26.63;13.00;;;6.10;99.90;;;;;;5052403;28;20074;-75
2023/12/27 08:51:14;;;;;;;22.35;11.68;;;6.20;99.90;;;;;;5040986;28;20100;-74
2023/12/27 08:53:39;;;;;;;23.52;13.15;;;6.20;99.90;;;;;;5043773;28;20043;-74
2023/12/27 08:56:05;;;;;;;23.15;13.50;;;6.30;99.90;;;;;;5029966;28;20036;-75
2023/12/27 08:58:32;;;;;;;27.58;13.07;;;6.30;99.90;;;;;;5046420;28;20029;-74
2023/12/27 09:00:58;;;;;;;25.95;14.02;;;6.30;99.90;;;;;;5051998;28;20112;-74
2023/12/27 09:03:24;;;;;;;23.35;12.93;;;6.40;99.90;;;;;;5046968;28;20033;-74
2023/12/27 09:05:50;;;;;;;22.67;13.80;;;6.40;99.90;;;;;;5045774;28;20051;-74
2023/12/27 09:08:16;;;;;;;25.98;14.73;;;6.50;99.90;;;;;;5048424;28;20397;-74
2023/12/27 09:10:42;;;;;;;21.38;13.27;;;6.50;99.90;;;;;;5051734;28;20043;-74
2023/12/27 09:13:07;;;;;;;20.80;12.77;;;6.60;99.90;;;;;;5051706;28;20531;-74
2023/12/27 09:15:33;;;;;;;51.58;29.73;;;6.60;99.90;;;;;;5051585;28;20048;-74
2023/12/27 09:17:59;;;;;;;25.58;16.75;;;6.70;99.90;;;;;;5034792;28;20025;-74
2023/12/27 09:20:24;;;;;;;22.75;14.40;;;6.80;99.90;;;;;;5048105;28;20033;-74
2023/12/27 09:22:50;;;;;;;19.83;13.40;;;6.80;99.90;;;;;;5036062;28;20029;-74
2023/12/27 09:25:16;;;;;;;23.63;13.80;;;6.80;99.90;;;;;;5041874;28;20045;-76
2023/12/27 09:27:43;;;;;;;23.17;14.07;;;6.90;99.90;;;;;;5047035;28;20031;-76
2023/12/27 09:30:09;;;;;;;30.42;14.20;;;7.00;99.90;;;;;;5047427;28;20477;-76
2023/12/27 09:32:36;;;;;;;20.90;14.05;;;7.00;99.90;;;;;;5032372;28;20036;-75
2023/12/27 09:35:02;;;;;;;24.63;14.05;;;7.10;99.90;;;;;;5033922;28;20120;-76
2023/12/27 09:37:28;;;;;;;21.92;13.63;;;7.10;99.90;;;;;;5017526;28;20028;-76
2023/12/27 09:39:54;;;;;;;24.25;14.18;;;7.10;99.90;;;;;;5049588;28;20048;-76
2023/12/27 09:42:20;;;;;;;24.08;14.02;;;7.20;99.90;;;;;;5051248;28;20028;-76
2023/12/27 09:44:48;;;;;;;22.15;13.70;;;7.20;99.90;;;;;;5056688;28;20028;-76
2023/12/27 09:47:15;;;;;;;24.95;13.63;;;7.20;99.90;;;;;;5051915;28;20051;-76
2023/12/27 09:49:41;;;;;;;23.15;13.50;;;7.30;99.90;;;;;;5038693;28;20041;-76
2023/12/27 09:52:08;;;;;;;24.67;13.05;;;7.30;99.90;;;;;;5036682;28;20021;-76
2023/12/27 09:54:33;;;;;;;18.95;12.68;;;7.40;99.90;;;;;;5052566;28;20463;-76
2023/12/27 09:57:00;;;;;;;19.27;12.25;;;7.30;99.90;;;;;;5051431;28;20029;-73
2023/12/27 09:59:29;;;;;;;18.27;12.45;;;7.40;99.90;;;;;;5033374;28;20481;-74
2023/12/27 10:02:01;;;;;;;22.42;12.10;;;7.40;99.90;;;;;;5032464;28;20022;-75
2023/12/27 10:05:04;;;;;;;21.63;12.10;;;7.40;99.90;;;;;;5041527;28;20059;-75
2023/12/27 10:07:31;;;;;;;14.90;9.70;;;7.50;99.90;;;;;;5035331;28;20029;-74
2023/12/27 10:09:57;;;;;;;18.52;10.23;;;7.50;99.90;;;;;;5040970;28;20029;-76
2023/12/27 10:12:22;;;;;;;16.60;9.63;;;7.50;99.90;;;;;;5038665;28;20072;-76
2023/12/27 10:14:51;;;;;;;13.23;8.55;;;7.60;99.90;;;;;;5037522;28;20451;-78
2023/12/27 10:17:17;;;;;;;14.98;8.32;;;7.60;99.90;;;;;;5048361;28;20519;-78
2023/12/27 10:19:44;;;;;;;15.23;8.50;;;7.60;99.90;;;;;;5051004;28;20029;-77
2023/12/27 10:22:12;;;;;;;14.57;7.95;;;7.70;99.90;;;;;;5051270;28;20017;-77
2023/12/27 10:24:38;;;;;;;13.85;7.60;;;7.80;99.90;;;;;;5041174;28;20026;-77
2023/12/27 10:27:05;;;;;;;13.73;7.25;;;7.80;99.90;;;;;;5048882;28;20017;-77
2023/12/27 10:29:34;;;;;;;13.05;7.18;;;7.90;99.90;;;;;;5051480;28;20074;-76
2023/12/27 10:32:02;;;;;;;16.58;8.07;;;8.00;99.90;;;;;;5047563;28;20021;-77
2023/12/27 10:34:29;;;;;;;12.05;6.47;;;8.00;99.90;;;;;;5045069;28;20048;-76
2023/12/27 10:36:55;;;;;;;12.75;7.22;;;8.00;99.90;;;;;;5048336;28;20025;-76
2023/12/27 10:39:21;;;;;;;13.02;6.70;;;8.00;99.90;;;;;;5051439;28;20053;-76
2023/12/27 10:41:47;;;;;;;9.30;5.28;;;8.10;99.90;;;;;;5046790;28;20468;-75
2023/12/27 10:44:17;;;;;;;10.27;5.97;;;8.10;99.90;;;;;;5050097;28;20154;-75
2023/12/27 10:46:43;;;;;;;9.85;5.60;;;8.20;99.90;;;;;;5035186;28;20041;-75
2023/12/27 10:49:13;;;;;;;11.20;5.50;;;8.20;99.90;;;;;;5048118;28;20028;-76
2023/12/27 10:51:40;;;;;;;10.27;5.70;;;8.30;99.90;;;;;;5050850;28;20385;-76
2023/12/27 10:54:06;;;;;;;10.55;5.43;;;8.30;99.90;;;;;;5031888;28;20025;-76
2023/12/27 10:56:39;;;;;;;12.43;5.88;;;8.30;99.90;;;;;;5053848;28;20087;-76
2023/12/27 10:59:09;;;;;;;11.02;5.68;;;8.40;99.90;;;;;;5058646;28;20078;-76
2023/12/27 11:01:39;;;;;;;9.93;5.07;;;8.40;99.90;;;;;;5053832;28;20060;-76
2023/12/27 11:04:09;;;;;;;9.43;5.63;;;8.50;99.90;;;;;;5046577;28;20071;-76
2023/12/27 11:06:37;;;;;;;8.48;5.68;;;8.50;99.90;;;;;;5045791;28;20560;-76
2023/12/27 11:09:07;;;;;;;11.68;4.65;;;8.50;99.90;;;;;;5043394;28;20033;-76
2023/12/27 11:11:40;;;;;;;10.65;5.30;;;8.60;99.90;;;;;;5049485;28;20363;-76
2023/12/27 11:14:09;;;;;;;;;;;8.60;99.90;;;;;;5045044;28;20071;-76
2023/12/27 11:16:39;;;;;;;8.95;4.93;;;8.60;99.90;;;;;;5051888;28;19912;-76
2023/12/27 11:19:06;;;;;;;9.50;4.82;;;8.60;99.90;;;;;;5050922;28;20021;-76
2023/12/27 11:21:33;;;;;;;18.73;4.90;;;8.70;99.90;;;;;;5052063;28;20560;-76
2023/12/27 11:23:59;;;;;;;11.45;5.78;;;8.70;99.90;;;;;;5051529;28;20021;-76
2023/12/27 11:26:26;;;;;;;10.38;5.03;;;8.70;99.90;;;;;;5051185;28;20059;-77
2023/12/27 11:28:52;;;;;;;10.18;4.38;;;8.80;99.90;;;;;;5022881;28;20116;-76
2023/12/27 11:31:19;;;;;;;11.85;5.10;;;8.80;99.90;;;;;;5049040;28;20452;-77
2023/12/27 11:33:46;;;;;;;7.47;4.50;;;8.90;99.90;;;;;;5051718;28;20018;-77
2023/12/27 11:36:12;;;;;;;11.57;4.40;;;8.90;99.90;;;;;;5035497;28;20047;-77
2023/12/27 11:38:39;;;;;;;10.02;3.80;;;8.90;99.90;;;;;;5053849;28;20052;-77
2023/12/27 11:41:06;;;;;;;7.63;4.15;;;9.00;99.90;;;;;;5047815;28;20028;-77
2023/12/27 11:44:04;;;;;;;6.78;3.80;;;8.90;99.90;;;;;;5037890;28;20115;-77
2023/12/27 11:46:30;;;;;;;9.23;3.55;;;9.00;99.90;;;;;;5025002;28;20037;-77
2023/12/27 11:48:58;;;;;;;6.38;3.00;;;9.00;99.90;;;;;;5053579;28;20025;-75
2023/12/27 11:51:38;;;;;;;12.88;3.72;;;9.10;99.90;;;;;;5049037;28;20041;-74
2023/12/27 11:54:07;;;;;;;8.95;3.30;;;9.10;99.90;;;;;;5049316;28;20033;-75
2023/12/27 11:56:37;;;;;;;7.22;3.13;;;9.10;99.90;;;;;;5055293;28;20037;-75
2023/12/27 11:59:07;;;;;;;6.90;3.08;;;9.20;99.90;;;;;;5043265;28;20057;-76
2023/12/27 12:01:37;;;;;;;5.82;3.10;;;9.20;99.90;;;;;;5055083;28;20025;-76
2023/12/27 12:04:21;;;;;;;8.10;3.10;;;9.20;99.90;;;;;;5057667;28;20032;-76
2023/12/27 12:07:08;;;;;;;4.78;2.63;;;9.20;99.90;;;;;;5060949;28;20032;-76
2023/12/27 12:09:37;;;;;;;5.80;2.55;;;9.20;99.90;;;;;;5055467;28;20072;-76
2023/12/27 12:12:24;;;;;;;4.38;2.40;;;9.20;99.90;;;;;;5047869;28;20067;-76
2023/12/27 12:14:54;;;;;;;6.43;3.15;;;9.30;99.90;;;;;;5047676;28;20048;-76
2023/12/27 12:17:21;;;;;;;9.95;2.45;;;9.30;99.90;;;;;;5040903;28;20370;-76
2023/12/27 12:19:49;;;;;;;4.85;2.40;;;9.30;99.90;;;;;;5035561;28;20025;-76
2023/12/27 12:22:15;;;;;;;9.23;2.15;;;9.30;99.90;;;;;;5039524;28;20051;-77
2023/12/27 12:24:42;;;;;;;6.22;2.00;;;9.30;99.90;;;;;;5035955;28;20044;-77
2023/12/27 12:27:10;;;;;;;10.43;2.72;;;9.40;99.90;;;;;;5034694;28;21024;-77
2023/12/27 12:29:36;;;;;;;6.03;2.08;;;9.30;99.90;;;;;;5030611;28;20029;-76
2023/12/27 12:32:03;;;;;;;6.07;1.98;;;9.40;99.90;;;;;;5035849;28;20068;-76
2023/12/27 12:34:29;;;;;;;8.80;2.22;;;9.30;99.90;;;;;;5031135;28;20033;-76
2023/12/27 12:36:54;;;;;;;6.50;2.08;;;9.40;99.90;;;;;;5027725;28;20037;-76
2023/12/27 12:39:20;;;;;;;8.32;1.65;;;9.40;99.90;;;;;;5028761;28;20852;-76
2023/12/27 12:41:47;;;;;;;7.10;2.17;;;9.40;99.90;;;;;;5025918;28;20032;-76